Relevés horaires Melle (Belgique)


Relevés horaires à Melle - Samedi 12 Déc. 2015
Heure UTC1 Température [°C] Vent [km/h] Hum. [%] Pres.4 [hPa] Visi. [Km] Nébu. [octa] Préc.5 [mm] Cond.
2m. Res. Ros. Dir.2 Vit. Moy. Raf.3
23:00 9.9 7.8 7.3 SO 14.8 14.8 22.2 84 1017.1(-1.0/3h) -- -- -- --
22:00 10.3 8.3 7.5 SO 14.8 14.8 27.8 83 1017.9(-0.2/3h) -- -- -- --
21:00 10.4 8.4 7.6 SO 14.8 16.7 25.9 83 1018.2(-0.7/3h) -- -- -- --
20:00 10.5 8.3 8.0 SO 16.7 16.7 25.9 84 1018.1(-1.1/3h) -- -- -- --
19:00 10.8 8.9 8.6 SO 14.8 16.7 24.1 86 1018.1(-1.5/3h) -- -- -- --
18:00 11.0 9.4 8.7 SO 13.0 14.8 22.2 86 1018.9(-1.3/3h) -- -- 0.1/12h
--
17:00 11.0 9.4 8.9 SSO 13.0 14.8 22.2 87 1019.2(-2.1/3h) -- -- -- --
16:00 11.0 9.7 9.2 SSO 11.1 11.1 16.7 89 1019.6(-2.4/3h) -- -- -- --
15:00 10.5 9.1 9.1 SSO 11.1 11.1 16.7 91 1020.2(-2.8/3h) -- -- -- --
14:00 9.5 8.2 8.0 SSO 9.3 9.3 14.8 90 1021.3(-3.0/3h) -- -- -- --
13:00 9.5 8.2 7.0 S 9.3 9.3 13.0 84 1022(-2.7/3h) -- -- -- --
12:00 9.2 8.2 6.1 SSO 7.4 7.4 13.0 81 1023(-1.9/3h) -- -- 0/0h
0/6h
--
11:00 8.5 7.9 6.5 SO 5.6 5.6 7.4 87 1024.3(-0.4/3h) -- -- -- --
10:00 7.5 7.5 5.1 SO 3.7 5.6 9.3 85 1024.7(0.2/3h) -- -- -- --
09:00 7.0 6.1 5.0 SSO 5.6 5.6 7.4 87 1025(0.2/3h) -- -- -- --
08:00 6.6 5.7 4.6 SO 5.6 5.6 7.4 87 1024.8(0.2/3h) -- -- -- --
07:00 6.4 5.5 4.5 SSO 5.6 5.6 7.4 88 1024.6(0.0/3h) -- -- -- --
06:00 5.8 5.8 4.1 SSO 3.7 5.6 7.4 89 1024.8(0.2/3h) -- -- 1/12h
--
05:00 6.1 6.1 4.4 OSO 3.7 3.7 5.6 89 1024.6(-0.1/3h) -- -- -- --
04:00 6.6 6.6 4.8 SO 1.9 5.6 5.6 88 1024.6(0.1/3h) -- -- -- --
03:00 6.4 6.4 5.0 SO 3.7 5.6 7.4 91 1024.6(0.3/3h) -- -- -- --
02:00 6.3 6.3 4.9 OSO 3.7 3.7 5.6 91 1024.7(0.5/3h) -- -- -- --
01:00 7.4 7.4 6.2 O 3.7 5.6 7.4 92 1024.4(0.7/3h) -- -- -- --
00:00 7.9 7.9 6.6 OSO 3.7 11.1 24.1 91 1024.2(0.4/3h) -- -- 1/6h
--

1 Coordinated Universal Time. Actuellement il est 20:00 locale et 18:00 UTC.

2 Le vent souffle depuis la direction indiquée vers la direction oposée.

3 Les rafales max. sont disponible 40 min après l'heure du relevé.

4 Pour les stations d'altitude (plus de 600m) le géopotentiel du niveau le plus proche de la pression obligatoire est indiqué.

5 Les stations disposant d'un diffuseur peuvent indiquer "trace". Cela signifie que des précipitations ont touchés le sol mais que la quantité est inférieure à 0.1 mm.

Récapitulatif de la journée
Température [°C] Vent [km/h] Ensoleillement4 [h] Precipitations totale5 [mm] Pression [Hpa]
Min1 Max.2 Moy.3 Max. Min Max.
5.7 11.3 9.4 27.8 0 h 0 min 0 1017.1 1025.0

1 Température minimale relevée entre 18:00 UTC la veille et 18:00 UTC le jour donné.

2 Température maximale relevée entre 06:00 UTC le jour donné et 06:00 UTC le lendemain.

3 Vent moyen de la journée basé sur les relevés horaires.

4 Ensoleillement en heures relevé entre 06:00 UTC la veille et 06:00 UTC le jour donné.

5 Précipitations totales tombées entre 06:00 UTC la jour donné et 06:00 UTC le lendemain.

Graphiques horaires